Nearby METAR Reports

 

CYUL - Montreal/Dorval, Quebec, Canada
Distance from station: ENE 6km
Updated: 03/28/2020 09:00 EDT
Mostly cloudy
Mostly cloudy
 Wind from ESE
Wind: ESE 7 km/h
Temperature: 4°C
Wind Chill: 2°C
Dew Point: -6°C
Humidity: 48%
Barometer: 1021.7 hPa
Clouds: Mostly cloudy
Visibility: 48 km
Cloud details: Mostly cloudy 7620 m
2020/03/28 13:00 CYUL 281300Z 11004KT 050V130 30SM BKN250 04/M06 A3017 RMK CI7 SLP218
CWVQ - Ste Anne De Bell, Quebec, Canada
Distance from station: WSW 10km
Updated: 03/28/2020 09:00 EDT

 Wind from E
Wind: E 7 km/h
Temperature: 3°C
Wind Chill: 1°C
Dew Point: -6°C
Humidity: 52%
2020/03/28 13:00 CWVQ 281300Z AUTO 10004KT 03/M06 RMK AO1 SLP217 T00251055 53014
 
CWTA - Mc Tavish (aut), Quebec, Canada
Distance from station: ENE 18km
Updated: 03/28/2020 09:00 EDT

 Wind from E
Wind: E 6 km/h
Temperature: 3°C
Dew Point: -9°C
Humidity: 41%
2020/03/28 13:00 CWTA 281300Z AUTO 09003KT 03/M09 RMK AO1 2PAST HR SOG 20 3012 SLP217 P0001 T00341092 50002
CYMX - Montreal/Mirabel, Quebec, Canada
Distance from station: NW 29km
Updated: 03/28/2020 09:00 EDT
Mostly cloudy
Mostly cloudy
 Wind from NE
Wind: NE 6 km/h
Temperature: 0°C
Dew Point: -7°C
Humidity: 60%
Barometer: 1021.3 hPa
Clouds: Mostly cloudy
Visibility: 72 km
Cloud details: Few Clouds 3048 m
Mostly cloudy 7620 m
2020/03/28 13:00 CYMX 281300Z 04003KT 320V080 45SM FEW100 BKN250 M00/M07 A3016 RMK AC1CI6 AC TR SLP220
 
CYHU - Saint Hubert Arp, Quebec, Canada
Distance from station: ENE 31km
Updated: 03/28/2020 09:00 EDT
Few Clouds
Few Clouds
 Wind from ENE
Wind: ENE 4 km/h
Temperature: 3°C
Dew Point: -5°C
Humidity: 56%
Barometer: 1021.7 hPa
Clouds: Few Clouds
Visibility: 14 km
Cloud details: Few Clouds 7315 m
2020/03/28 13:00 CYHU 281300Z AUTO 07002KT 9SM FEW240 03/M05 A3017 RMK PRESRR SLP220
CWIT - St Clothilde (a, Quebec, Canada
Distance from station: SSE 33km
Updated: 03/28/2020 09:00 EDT

 Wind from ESE
Wind: ESE 4 km/h
Temperature: 2°C
Dew Point: -4°C
Humidity: 65%
2020/03/28 13:00 CWIT 281300Z AUTO 11002KT 02/M04 RMK AO1 SLP206 T00211041 53009
 
CWIZ - L'acadie, Quebec, Canada
Distance from station: ESE 41km
Updated: 03/28/2020 09:00 EDT

 Wind from ESE
Wind: ESE 4 km/h
Temperature: 2°C
Dew Point: -3°C
Humidity: 70%
2020/03/28 13:00 CWIZ 281300Z AUTO 12002KT 02/M03 RMK AO1 T00241034
CWHM - Varennes, Quebec, Canada
Distance from station: NE 45km
Updated: 10/25/2016 10:00 EDT
NOT Current

 Wind from W
Wind: W 19 km/h, Gust: 28 km/h
Temperature: 4°C
Wind Chill: 0°C
Dew Point: -2°C
Humidity: 65%
2016/10/25 14:00 CWHM 251400Z AUTO 28010G15KT 04/M02 RMK AO1 PK WND 28018/1302 T00391017
 
CWEW - L'assomption, Quebec, Canada
Distance from station: NE 50km
Updated: 03/28/2020 09:00 EDT

 Wind from NW
Wind: NW 6 km/h
Temperature: 0°C
Dew Point: -6°C
Humidity: 64%
2020/03/28 13:00 CWEW 281300Z AUTO 32003KT 00/M06 RMK AO1 SLP227 T00001055 53014
CWBZ - St Anicet, Quebec, Canada
Distance from station: SW 52km
Updated: 03/28/2020 09:00 EDT

 Wind from ENE
Wind: ENE 9 km/h
Temperature: 3°C
Wind Chill: 0°C
Dew Point: -5°C
Humidity: 56%
2020/03/28 13:00 CWBZ 281300Z AUTO 07005KT 03/M05 RMK AO1 SLP202 T00301047 53004
 
KFSO - Highgate, Vermont, USA
Distance from station: SE 79km
Updated: 03/28/2020 09:35 EDT
Clear
Clear
 Wind from calm
Wind: Calm
Temperature: 4°C
Dew Point: -4°C
Humidity: 56%
Barometer: 1021.3 hPa
Clouds: Clear
Visibility: 16 km
2020/03/28 13:35 KFSO 281335Z AUTO 00000KT 10SM CLR 04/M04 A3016 RMK AO2 T00401044
CMGB - Granby, Quebec, Canada
Distance from station: E 81km
Updated: 03/28/2020 09:30 EDT

 Wind from NNE
Wind: NNE 2 km/h
Temperature: 4°C
2020/03/28 13:30 CMGB 281330Z AUTO 02001KT 04/ RMK AO1 SLP208 T0043 55000
 
CWJT - St Jovite (autob, Quebec, Canada
Distance from station: NW 88km
Updated: 03/28/2020 08:00 EDT
NOT Current

 Wind from N
Wind: N 11 km/h
Temperature: -7°C
Wind Chill: -12°C
Dew Point: -8°C
Humidity: 93%
2020/03/28 12:00 CWJT 281200Z AUTO 00006KT M07/M08 RMK AO1 SLP220 T10701075 53011
CWFQ - Frelighsburg, Quebec, Canada
Distance from station: ESE 90km
Updated: 03/28/2020 09:00 EDT

 Wind from SSE
Wind: SSE 9 km/h
Temperature: 3°C
Wind Chill: 0°C
Dew Point: -7°C
Humidity: 48%
2020/03/28 13:00 CWFQ 281300Z AUTO 15005KT 03/M07 RMK AO1 SLP205 T00291073 53005
 
KPBG - Plattsburgh Afb, New York, USA
Distance from station: SSE 93km
Updated: 03/28/2020 08:53 EDT
Clear
Clear
 Wind from SSE
Wind: SSE 7 km/h
Temperature: 2°C
Wind Chill: 0°C
Dew Point: -5°C
Humidity: 60%
Barometer: 1021 hPa
Clouds: Clear
Visibility: 16 km
2020/03/28 12:53 KPBG 281253Z AUTO 15004KT 10SM CLR 02/M05 A3015 RMK AO2 SLP213 T00171050
KMSS - Massena, New York, USA
Distance from station: SW 100km
Updated: 03/28/2020 08:53 EDT
Clear
Clear
 Wind from NE
Wind: NE 7 km/h
Temperature: 0°C
Wind Chill: -3°C
Dew Point: -4°C
Humidity: 75%
Barometer: 1020.3 hPa
Clouds: Clear
Visibility: 16 km
2020/03/28 12:53 KMSS 281253Z AUTO 05004KT 10SM CLR 00/M04 A3013 RMK AO2 SLP210 T00001039
 
CWBS - Lac St Pierre (a, Quebec, Canada
Distance from station: NE 106km
Updated: 11/05/2019 18:00 EST
NOT Current

 Wind from SE
Wind: SE 9 km/h
Temperature: 6°C
Wind Chill: 4°C
Dew Point: 0°C
Humidity: 66%
2019/11/05 23:00 CWBS 052300Z AUTO 14005KT 06/M00 RMK AO1 T00551002
KBTV - Burlington, Vermont, USA
Distance from station: SSE 121km
Updated: 03/28/2020 08:54 EDT
Mostly cloudy
Mostly cloudy
 Wind from calm
Wind: Calm
Temperature: 2°C
Dew Point: -5°C
Humidity: 60%
Barometer: 1021 hPa
Clouds: Mostly cloudy
Visibility: 16 km
Cloud details: Partly cloudy 3048 m
Mostly cloudy 4572 m
2020/03/28 12:54 KBTV 281254Z 00000KT 10SM SCT100 BKN150 02/M05 A3015 RMK AO2 SLP213 T00221050
 
KSLK - Saranac Lake, New York, USA
Distance from station: SSW 121km
Updated: 03/28/2020 08:51 EDT
Clear
Clear
 Wind from calm
Wind: Calm
Temperature: -1°C
Dew Point: -4°C
Humidity: 80%
Barometer: 1017.9 hPa
Clouds: Clear
Visibility: 16 km
2020/03/28 12:51 KSLK 281251Z AUTO 00000KT 10SM CLR M01/M04 A3006 RMK AO2 SLP201 T10111044
CWNQ - Nicolet (autob), Quebec, Canada
Distance from station: NE 123km
Updated: 03/28/2020 09:00 EDT

 Wind from W
Wind: W 4 km/h
Temperature: -1°C
Dew Point: -5°C
Humidity: 75%
2020/03/28 13:00 CWNQ 281300Z AUTO 28002KT M01/M05 RMK AO1 SLP218 T10121046 53013
 
KMWN - Mount Washington, New Hampshire, USA
Distance from station: SE 237km
Updated: 03/28/2020 08:53 EDT
Partly cloudy
Partly cloudy
 Wind from WNW
Wind: WNW 44 km/h
Temperature: -4°C
Wind Chill: -13°C
Dew Point: -11°C
Humidity: 59%
Clouds: Partly cloudy
Visibility: 144 km
Cloud details: Partly cloudy 4267 m
2020/03/28 12:53 KMWN 281253Z 30024KT 90SM SCT140 M04/M11 RMK
CYVR - Vancouver Intl A, British Columbia, Canada
Distance from station: NW 3676km
Updated: 03/28/2020 09:00 EDT
Light rain, Overcast
Light rain, Overcast
 Wind from SE
Wind: SE 19 km/h
Temperature: 8°C
Wind Chill: 4°C
Dew Point: 7°C
Humidity: 93%
Barometer: 1013.9 hPa
Summary: Light rain
Clouds: Overcast
Visibility: 24 km
Cloud details: Few Clouds 183 m
Mostly cloudy 1433 m
Overcast 1890 m
2020/03/28 13:00 CYVR 281300Z 13010KT 15SM -RA FEW006 BKN047 OVC062 08/07 A2994 RMK SC1SC6SC1 CF ASOCTD SLP139